createdAt,value
2023-03-03T00:01:54.732Z,100.00
2023-03-03T00:04:22.259Z,100.00
2023-03-03T00:06:49.647Z,100.00
2023-03-03T00:09:17.262Z,100.00
2023-03-03T00:11:56.520Z,100.00
2023-03-03T00:14:32.766Z,100.00
2023-03-03T00:17:20.374Z,100.00
2023-03-03T00:19:48.897Z,100.00
2023-03-03T00:22:33.869Z,100.00
2023-03-03T00:25:24.858Z,100.00
2023-03-03T00:27:52.219Z,100.00
2023-03-03T00:30:26.682Z,100.00
2023-03-03T00:32:55.796Z,100.00
2023-03-03T00:35:30.522Z,100.00
2023-03-03T00:38:01.178Z,100.00
2023-03-03T00:40:40.539Z,100.00
2023-03-03T00:43:36.028Z,100.00
2023-03-03T00:46:03.645Z,100.00
2023-03-03T00:48:37.853Z,100.00
2023-03-03T00:51:25.792Z,100.00
2023-03-03T00:53:53.274Z,100.00
2023-03-03T00:56:20.934Z,100.00
2023-03-03T00:58:51.279Z,100.00
2023-03-03T01:01:19.421Z,100.00
2023-03-03T01:03:51.422Z,100.00
2023-03-03T01:06:18.860Z,100.00
2023-03-03T01:08:46.423Z,100.00
2023-03-03T01:11:17.580Z,100.00
2023-03-03T01:13:48.636Z,100.00
2023-03-03T01:16:19.515Z,100.00
2023-03-03T01:18:50.448Z,100.00
2023-03-03T01:21:17.981Z,100.00
2023-03-03T01:23:45.539Z,100.00
2023-03-03T01:26:13.206Z,100.00
2023-03-03T01:28:40.649Z,100.00
2023-03-03T01:31:08.620Z,100.00
2023-03-03T01:33:36.780Z,100.00
2023-03-03T01:36:05.746Z,100.00
2023-03-03T01:38:36.212Z,100.00
2023-03-03T01:41:06.826Z,100.00
2023-03-03T01:43:44.685Z,100.00
2023-03-03T01:46:33.851Z,100.00
2023-03-03T01:49:24.671Z,100.00
2023-03-03T01:52:00.070Z,100.00
2023-03-03T01:54:38.415Z,100.00
2023-03-03T01:57:13.639Z,100.00
2023-03-03T01:59:46.630Z,100.00
2023-03-03T02:02:14.213Z,100.00
2023-03-03T02:04:44.020Z,100.00
2023-03-03T02:07:14.364Z,100.00
2023-03-03T02:10:05.123Z,100.00
2023-03-03T02:12:40.532Z,100.00
2023-03-03T02:15:18.441Z,100.00
2023-03-03T02:17:48.441Z,100.00
2023-03-03T02:20:47.624Z,100.00
2023-03-03T02:23:38.434Z,100.00
2023-03-03T02:26:13.301Z,100.00
2023-03-03T02:28:42.196Z,100.00
2023-03-03T02:31:13.670Z,100.00
2023-03-03T02:33:47.202Z,100.00
2023-03-03T02:36:45.641Z,100.00
2023-03-03T02:39:23.272Z,100.00
2023-03-03T02:42:13.334Z,100.00
2023-03-03T02:44:41.587Z,100.00
2023-03-03T02:47:09.770Z,100.00
2023-03-03T02:49:37.572Z,100.00
2023-03-03T02:52:07.588Z,100.00
2023-03-03T02:54:35.595Z,100.00
2023-03-03T02:57:04.022Z,100.00
2023-03-03T02:59:31.960Z,100.00
2023-03-03T03:02:00.533Z,100.00
2023-03-03T03:04:29.499Z,100.00
2023-03-03T03:06:57.642Z,100.00
2023-03-03T03:09:25.966Z,100.00
2023-03-03T03:11:53.506Z,100.00
2023-03-03T03:14:25.718Z,100.00
2023-03-03T03:16:53.102Z,100.00
2023-03-03T03:19:21.106Z,100.00
2023-03-03T03:21:48.690Z,100.00
2023-03-03T03:24:16.227Z,100.00
2023-03-03T03:26:43.887Z,100.00
2023-03-03T03:29:12.362Z,100.00
2023-03-03T03:31:39.820Z,100.00
2023-03-03T03:34:07.175Z,100.00
2023-03-03T03:36:34.550Z,100.00
2023-03-03T03:39:21.855Z,100.00
2023-03-03T03:41:49.763Z,100.00
2023-03-03T03:44:17.153Z,100.00
2023-03-03T03:46:44.539Z,100.00
2023-03-03T03:49:13.366Z,100.00
2023-03-03T03:51:42.100Z,100.00
2023-03-03T03:54:09.760Z,100.00
2023-03-03T03:56:37.123Z,100.00
2023-03-03T03:59:07.140Z,100.00
2023-03-03T04:01:34.672Z,100.00
2023-03-03T04:04:04.238Z,100.00
2023-03-03T04:06:32.038Z,100.00
2023-03-03T04:09:01.237Z,100.00
2023-03-03T04:11:28.666Z,100.00
2023-03-03T04:13:56.003Z,100.00
2023-03-03T04:16:23.412Z,100.00
2023-03-03T04:18:50.834Z,100.00
2023-03-03T04:21:18.560Z,100.00
2023-03-03T04:23:45.957Z,100.00
2023-03-03T04:26:15.627Z,100.00
2023-03-03T04:28:43.189Z,100.00
2023-03-03T04:31:10.949Z,100.00
2023-03-03T04:33:38.564Z,100.00
2023-03-03T04:36:06.589Z,100.00
2023-03-03T04:38:33.967Z,100.00
2023-03-03T04:41:01.394Z,100.00
2023-03-03T04:43:28.884Z,100.00
2023-03-03T04:45:57.722Z,100.00
2023-03-03T04:48:25.615Z,100.00
2023-03-03T04:50:54.533Z,100.00
2023-03-03T04:53:22.503Z,100.00
2023-03-03T04:55:54.073Z,100.00
2023-03-03T04:58:21.970Z,100.00
2023-03-03T05:00:56.756Z,100.00
2023-03-03T05:03:25.118Z,100.00
2023-03-03T05:05:53.392Z,100.00
2023-03-03T05:08:21.010Z,100.00
2023-03-03T05:10:52.287Z,100.00
2023-03-03T05:13:19.709Z,100.00
2023-03-03T05:15:51.878Z,100.00
2023-03-03T05:18:20.336Z,100.00
2023-03-03T05:20:50.372Z,100.00
2023-03-03T05:23:19.267Z,100.00
2023-03-03T05:25:50.149Z,100.00
2023-03-03T05:28:19.090Z,100.00
2023-03-03T05:30:46.690Z,100.00
2023-03-03T05:33:15.767Z,100.00
2023-03-03T05:35:43.386Z,100.00
2023-03-03T05:38:11.647Z,100.00
2023-03-03T05:40:40.006Z,100.00
2023-03-03T05:43:07.427Z,100.00
2023-03-03T05:45:36.737Z,100.00
2023-03-03T05:48:05.028Z,100.00
2023-03-03T05:50:32.927Z,100.00
2023-03-03T05:53:00.798Z,100.00
2023-03-03T05:55:28.207Z,100.00
2023-03-03T05:57:57.746Z,100.00
2023-03-03T06:00:25.183Z,99.34
2023-03-03T06:02:53.296Z,99.25
2023-03-03T06:05:21.051Z,100.00
2023-03-03T06:07:49.407Z,100.00
2023-03-03T06:10:16.809Z,100.00
2023-03-03T06:12:45.248Z,100.00
2023-03-03T06:15:13.479Z,100.00
2023-03-03T06:17:42.778Z,100.00
2023-03-03T06:20:11.113Z,100.00
2023-03-03T06:22:38.626Z,100.00
2023-03-03T06:25:07.837Z,100.00
2023-03-03T06:27:35.736Z,100.00
2023-03-03T06:30:04.724Z,100.00
2023-03-03T06:32:33.090Z,98.56
2023-03-03T06:35:00.517Z,98.62
2023-03-03T06:37:27.952Z,97.83
2023-03-03T06:39:55.355Z,96.74
2023-03-03T06:42:25.017Z,94.08
2023-03-03T06:44:52.419Z,91.62
2023-03-03T06:47:19.969Z,91.67
2023-03-03T06:49:48.984Z,90.98
2023-03-03T06:52:22.805Z,88.60
2023-03-03T06:54:54.099Z,88.12
2023-03-03T06:57:33.048Z,88.29
2023-03-03T07:00:15.873Z,88.46
2023-03-03T07:02:44.795Z,88.49
2023-03-03T07:05:18.160Z,87.88
2023-03-03T07:07:46.747Z,88.61
2023-03-03T07:10:32.355Z,86.62
2023-03-03T07:13:16.976Z,87.98
2023-03-03T07:15:45.128Z,85.36
2023-03-03T07:18:38.521Z,83.58
2023-03-03T07:21:18.131Z,82.47
2023-03-03T07:23:47.613Z,79.22
2023-03-03T07:26:22.395Z,79.10
2023-03-03T07:29:00.548Z,76.21
2023-03-03T07:31:34.138Z,75.59
2023-03-03T07:34:15.573Z,75.00
2023-03-03T07:36:59.752Z,75.48
2023-03-03T07:39:40.525Z,75.58
2023-03-03T07:42:22.372Z,74.96
2023-03-03T07:44:55.510Z,74.96
2023-03-03T07:47:31.237Z,74.25
2023-03-03T07:50:07.997Z,73.92
2023-03-03T07:52:45.960Z,73.43
2023-03-03T07:55:27.142Z,72.35
2023-03-03T07:57:59.109Z,72.39
2023-03-03T08:00:26.732Z,73.02
2023-03-03T08:03:03.495Z,73.17
2023-03-03T08:05:41.934Z,72.42
2023-03-03T08:08:09.641Z,71.93
2023-03-03T08:10:44.755Z,71.37
2023-03-03T08:13:18.690Z,71.29
2023-03-03T08:15:50.050Z,71.31
2023-03-03T08:18:28.775Z,70.51
2023-03-03T08:21:13.460Z,70.24
2023-03-03T08:23:41.590Z,70.57
2023-03-03T08:26:09.798Z,70.03
2023-03-03T08:28:37.434Z,71.48
2023-03-03T08:31:16.658Z,71.23
2023-03-03T08:33:47.879Z,70.27
2023-03-03T08:36:15.308Z,69.74
2023-03-03T08:38:43.049Z,69.01
2023-03-03T08:41:10.941Z,69.17
2023-03-03T08:43:39.146Z,67.03
2023-03-03T08:46:07.435Z,67.40
2023-03-03T08:48:34.966Z,67.31
2023-03-03T08:51:02.512Z,66.18
2023-03-03T08:53:31.430Z,64.64
2023-03-03T08:55:59.483Z,64.49
2023-03-03T08:58:34.994Z,63.69
2023-03-03T09:01:04.217Z,63.14
2023-03-03T09:03:51.571Z,61.68
2023-03-03T09:06:18.981Z,60.92
2023-03-03T09:08:49.416Z,60.50
2023-03-03T09:11:26.293Z,60.47
2023-03-03T09:14:16.606Z,59.76
2023-03-03T09:16:51.933Z,59.46
2023-03-03T09:19:34.842Z,59.50
2023-03-03T09:22:19.943Z,59.53
2023-03-03T09:24:49.436Z,60.68
2023-03-03T09:27:43.483Z,61.11
2023-03-03T09:30:34.817Z,60.65
2023-03-03T09:33:17.308Z,61.05
2023-03-03T09:35:46.236Z,62.16
2023-03-03T09:38:29.459Z,62.41
2023-03-03T09:41:36.547Z,62.74
2023-03-03T09:44:30.366Z,62.40
2023-03-03T09:47:36.133Z,65.56
2023-03-03T09:50:30.637Z,65.19
2023-03-03T09:53:10.360Z,64.77
2023-03-03T09:55:58.115Z,61.99
2023-03-03T09:58:37.840Z,60.88
2023-03-03T10:01:05.325Z,60.38
2023-03-03T10:03:52.245Z,62.31
2023-03-03T10:06:40.939Z,59.52
2023-03-03T10:09:17.868Z,59.15
2023-03-03T10:12:05.975Z,56.85
2023-03-03T10:15:07.365Z,58.89
2023-03-03T10:17:54.268Z,59.66
2023-03-03T10:20:25.075Z,57.44
2023-03-03T10:23:04.442Z,57.66
2023-03-03T10:25:50.932Z,59.24
2023-03-03T10:28:46.818Z,61.81
2023-03-03T10:31:32.776Z,62.72
2023-03-03T10:34:03.052Z,58.43
2023-03-03T10:37:02.714Z,59.70
2023-03-03T10:39:57.446Z,59.44
2023-03-03T10:42:30.842Z,60.77
2023-03-03T10:45:06.633Z,58.66
2023-03-03T10:47:45.150Z,60.06
2023-03-03T10:50:31.458Z,58.82
2023-03-03T10:53:15.809Z,59.75
2023-03-03T10:56:11.982Z,58.40
2023-03-03T10:58:48.592Z,59.45
2023-03-03T11:01:37.541Z,59.07
2023-03-03T11:04:20.825Z,59.63
2023-03-03T11:07:30.277Z,61.72
2023-03-03T11:10:16.820Z,58.56
2023-03-03T11:13:10.920Z,57.22
2023-03-03T11:16:05.324Z,57.97
2023-03-03T11:18:48.751Z,55.94
2023-03-03T11:21:26.579Z,59.35
2023-03-03T11:24:15.341Z,60.56
2023-03-03T11:27:12.432Z,58.90
2023-03-03T11:30:18.040Z,57.24
2023-03-03T11:33:05.222Z,57.80
2023-03-03T11:35:56.241Z,57.83
2023-03-03T11:38:33.494Z,56.86
2023-03-03T11:41:23.755Z,55.67
2023-03-03T11:44:03.758Z,54.90
2023-03-03T11:46:45.372Z,55.89
2023-03-03T11:49:37.655Z,57.04
2023-03-03T11:52:25.170Z,57.78
2023-03-03T11:55:07.259Z,58.90
2023-03-03T11:57:43.722Z,58.59
2023-03-03T12:00:20.302Z,59.09
2023-03-03T12:03:21.601Z,58.75
2023-03-03T12:05:56.783Z,57.77
2023-03-03T12:08:31.322Z,58.54
2023-03-03T12:11:27.531Z,58.78
2023-03-03T12:14:05.217Z,58.45
2023-03-03T12:16:35.838Z,57.83
2023-03-03T12:19:45.608Z,57.91
2023-03-03T12:22:27.026Z,57.91
2023-03-03T12:25:09.427Z,57.55
2023-03-03T12:27:58.583Z,56.54
2023-03-03T12:30:34.944Z,56.21
2023-03-03T12:33:20.043Z,56.94
2023-03-03T12:36:16.028Z,56.21
2023-03-03T12:39:02.192Z,57.13
2023-03-03T12:41:46.263Z,56.75
2023-03-03T12:44:43.726Z,56.66
2023-03-03T12:47:25.534Z,57.30
2023-03-03T12:50:13.654Z,57.59
2023-03-03T12:52:59.358Z,59.19
2023-03-03T12:55:45.695Z,59.05
2023-03-03T12:58:32.503Z,59.27
2023-03-03T13:01:09.011Z,60.04
2023-03-03T13:04:07.824Z,59.93
2023-03-03T13:06:35.655Z,60.55
2023-03-03T13:09:03.569Z,58.71
2023-03-03T13:12:07.138Z,57.85
2023-03-03T13:14:57.439Z,59.02
2023-03-03T13:17:30.535Z,60.34
2023-03-03T13:20:01.536Z,60.80
2023-03-03T13:22:44.844Z,60.91
2023-03-03T13:25:21.520Z,60.89
2023-03-03T13:27:56.682Z,60.86
2023-03-03T13:30:30.412Z,60.64
2023-03-03T13:33:08.607Z,60.90
2023-03-03T13:35:48.227Z,59.80
2023-03-03T13:38:31.831Z,61.40
2023-03-03T13:41:24.558Z,61.74
2023-03-03T13:44:17.498Z,61.68
2023-03-03T13:47:11.332Z,61.26
2023-03-03T13:50:17.899Z,61.64
2023-03-03T13:53:02.174Z,62.39
2023-03-03T13:55:38.288Z,63.25
2023-03-03T13:58:34.558Z,63.49
2023-03-03T14:01:34.101Z,64.08
2023-03-03T14:04:19.786Z,64.20
2023-03-03T14:06:57.606Z,64.50
2023-03-03T14:09:46.411Z,65.80
2023-03-03T14:12:37.674Z,65.65
2023-03-03T14:15:16.649Z,65.41
2023-03-03T14:18:05.603Z,64.80
2023-03-03T14:20:40.870Z,65.55
2023-03-03T14:23:19.066Z,66.35
2023-03-03T14:26:07.393Z,65.73
2023-03-03T14:28:49.805Z,65.73
2023-03-03T14:31:27.761Z,64.83
2023-03-03T14:34:27.314Z,66.64
2023-03-03T14:37:08.778Z,66.63
2023-03-03T14:39:40.592Z,67.10
2023-03-03T14:42:31.261Z,66.56
2023-03-03T14:45:01.482Z,65.85
2023-03-03T14:47:31.033Z,65.46
2023-03-03T14:50:03.593Z,66.11
2023-03-03T14:52:34.354Z,65.86
2023-03-03T14:55:32.673Z,66.33
2023-03-03T14:58:00.748Z,66.83
2023-03-03T15:00:33.772Z,66.66
2023-03-03T15:03:20.234Z,67.63
2023-03-03T15:05:52.562Z,68.37
2023-03-03T15:08:33.027Z,68.00
2023-03-03T15:11:33.686Z,67.90
2023-03-03T15:14:16.268Z,67.97
2023-03-03T15:16:45.139Z,68.40
2023-03-03T15:19:40.682Z,68.00
2023-03-03T15:22:21.581Z,68.83
2023-03-03T15:25:09.910Z,67.85
2023-03-03T15:27:47.308Z,68.31
2023-03-03T15:30:53.933Z,68.89
2023-03-03T15:33:43.214Z,69.11
2023-03-03T15:36:37.730Z,69.23
2023-03-03T15:39:20.020Z,68.80
2023-03-03T15:41:53.122Z,69.14
2023-03-03T15:44:38.750Z,68.91
2023-03-03T15:47:24.795Z,69.66
2023-03-03T15:50:17.587Z,68.64
2023-03-03T15:53:05.434Z,69.31
2023-03-03T15:55:51.704Z,69.44
2023-03-03T15:58:33.362Z,69.86
2023-03-03T16:01:27.366Z,69.85
2023-03-03T16:04:16.756Z,71.21
2023-03-03T16:06:56.803Z,69.55
2023-03-03T16:09:52.535Z,68.91
2023-03-03T16:12:35.091Z,69.99
2023-03-03T16:15:11.677Z,70.35
2023-03-03T16:18:07.834Z,70.71
2023-03-03T16:20:50.396Z,70.46
2023-03-03T16:23:31.922Z,70.87
2023-03-03T16:26:36.822Z,70.76
2023-03-03T16:29:10.597Z,71.16
2023-03-03T16:31:45.875Z,71.64
2023-03-03T16:34:21.754Z,70.58
2023-03-03T16:37:04.648Z,71.68
2023-03-03T16:39:54.579Z,72.29
2023-03-03T16:42:33.504Z,73.55
2023-03-03T16:45:13.183Z,75.27
2023-03-03T16:47:47.683Z,74.47
2023-03-03T16:50:36.963Z,75.51
2023-03-03T16:53:21.581Z,75.32
2023-03-03T16:56:00.705Z,74.97
2023-03-03T16:58:38.003Z,74.39
2023-03-03T17:01:31.107Z,74.11
2023-03-03T17:04:15.726Z,74.91
2023-03-03T17:06:54.362Z,76.08
2023-03-03T17:09:46.628Z,76.83
2023-03-03T17:12:21.976Z,75.42
2023-03-03T17:15:11.654Z,76.12
2023-03-03T17:18:01.022Z,77.43
2023-03-03T17:20:49.700Z,77.64
2023-03-03T17:23:54.803Z,77.68
2023-03-03T17:26:57.922Z,78.13
2023-03-03T17:29:52.871Z,77.77
2023-03-03T17:32:45.192Z,77.93
2023-03-03T17:35:32.044Z,79.40
2023-03-03T17:38:19.902Z,79.72
2023-03-03T17:40:57.522Z,79.54
2023-03-03T17:43:39.496Z,79.46
2023-03-03T17:46:20.831Z,81.57
2023-03-03T17:49:15.881Z,81.79
2023-03-03T17:52:07.519Z,80.80
2023-03-03T17:54:59.131Z,79.99
2023-03-03T17:57:32.948Z,79.28
2023-03-03T18:00:29.387Z,80.84
2023-03-03T18:03:29.944Z,80.14
2023-03-03T18:06:15.008Z,79.08
2023-03-03T18:09:04.932Z,79.78
2023-03-03T18:11:40.551Z,81.02
2023-03-03T18:14:26.852Z,81.33
2023-03-03T18:17:36.183Z,80.89
2023-03-03T18:20:22.506Z,81.33
2023-03-03T18:22:51.730Z,81.54
2023-03-03T18:25:21.503Z,80.99
2023-03-03T18:28:08.994Z,82.77
2023-03-03T18:30:55.397Z,81.63
2023-03-03T18:34:08.707Z,81.53
2023-03-03T18:37:00.032Z,82.51
2023-03-03T18:39:46.917Z,81.21
2023-03-03T18:42:17.546Z,80.95
2023-03-03T18:44:45.953Z,80.73
2023-03-03T18:47:15.154Z,81.71
2023-03-03T18:50:15.266Z,83.23
2023-03-03T18:53:20.716Z,83.46
2023-03-03T18:55:51.667Z,83.33
2023-03-03T18:58:19.078Z,82.90
2023-03-03T19:00:51.460Z,82.83
2023-03-03T19:03:54.903Z,82.61
2023-03-03T19:06:48.458Z,82.36
2023-03-03T19:09:40.718Z,81.63
2023-03-03T19:12:42.856Z,82.19
2023-03-03T19:15:31.409Z,82.01
2023-03-03T19:18:28.015Z,81.92
2023-03-03T19:21:28.218Z,82.45
2023-03-03T19:24:02.745Z,82.23
2023-03-03T19:27:16.716Z,82.48
2023-03-03T19:29:47.269Z,82.85
2023-03-03T19:32:34.537Z,83.42
2023-03-03T19:35:09.304Z,82.68
2023-03-03T19:37:53.357Z,84.02
2023-03-03T19:40:42.885Z,85.71
2023-03-03T19:43:35.403Z,86.25
2023-03-03T19:46:33.841Z,84.99
2023-03-03T19:49:20.023Z,85.62
2023-03-03T19:51:52.095Z,86.40
2023-03-03T19:55:08.946Z,89.03
2023-03-03T19:57:55.387Z,88.59
2023-03-03T20:00:40.424Z,87.21
2023-03-03T20:03:38.744Z,87.79
2023-03-03T20:06:17.160Z,86.07
2023-03-03T20:09:14.024Z,86.33
2023-03-03T20:11:56.595Z,88.40
2023-03-03T20:14:49.304Z,88.67
2023-03-03T20:17:35.711Z,88.96
2023-03-03T20:20:15.320Z,87.91
2023-03-03T20:23:20.375Z,83.33
2023-03-03T20:26:00.130Z,84.50
2023-03-03T20:28:40.374Z,83.51
2023-03-03T20:31:22.853Z,82.18
2023-03-03T20:34:23.193Z,82.91
2023-03-03T20:36:56.964Z,84.35
2023-03-03T20:39:44.688Z,85.02
2023-03-03T20:42:28.769Z,83.71
2023-03-03T20:45:06.551Z,82.83
2023-03-03T20:47:50.159Z,82.87
2023-03-03T20:50:44.776Z,82.09
2023-03-03T20:53:37.658Z,81.78
2023-03-03T20:56:33.070Z,83.25
2023-03-03T20:59:15.135Z,81.67
2023-03-03T21:02:02.577Z,82.06
2023-03-03T21:04:33.565Z,82.69
2023-03-03T21:07:03.268Z,82.56
2023-03-03T21:09:39.217Z,83.04
2023-03-03T21:12:29.028Z,82.65
2023-03-03T21:15:07.486Z,80.69
2023-03-03T21:17:35.020Z,80.27
2023-03-03T21:20:40.933Z,80.19
2023-03-03T21:23:11.870Z,81.23
2023-03-03T21:25:40.781Z,86.08
2023-03-03T21:28:28.821Z,84.92
2023-03-03T21:31:16.943Z,85.41
2023-03-03T21:33:56.321Z,82.95
2023-03-03T21:36:32.726Z,86.88
2023-03-03T21:39:02.267Z,86.42
2023-03-03T21:41:53.106Z,82.99
2023-03-03T21:44:40.639Z,82.40
2023-03-03T21:47:11.659Z,81.19
2023-03-03T21:49:59.035Z,80.46
2023-03-03T21:52:26.478Z,79.54
2023-03-03T21:54:54.328Z,78.96
2023-03-03T21:57:26.815Z,80.48
2023-03-03T21:59:54.799Z,80.82
2023-03-03T22:02:22.159Z,80.97
2023-03-03T22:04:49.712Z,82.23
2023-03-03T22:07:17.145Z,82.98
2023-03-03T22:09:45.054Z,83.14
2023-03-03T22:12:12.548Z,82.72
2023-03-03T22:14:42.766Z,84.50
2023-03-03T22:17:10.868Z,83.81
2023-03-03T22:19:38.440Z,84.00
2023-03-03T22:22:05.912Z,85.18
2023-03-03T22:24:33.445Z,86.43
2023-03-03T22:27:01.251Z,86.29
2023-03-03T22:29:28.774Z,86.01
2023-03-03T22:31:56.160Z,85.37
2023-03-03T22:34:23.896Z,85.39
2023-03-03T22:36:51.661Z,87.04
2023-03-03T22:39:19.948Z,88.44
2023-03-03T22:41:47.382Z,89.13
2023-03-03T22:44:14.853Z,89.61
2023-03-03T22:46:43.784Z,90.68
2023-03-03T22:49:11.171Z,91.13
2023-03-03T22:51:38.597Z,91.21
2023-03-03T22:54:06.031Z,91.63
2023-03-03T22:56:33.498Z,90.45
2023-03-03T22:59:00.860Z,91.56
2023-03-03T23:01:29.194Z,92.36
2023-03-03T23:03:56.627Z,94.35
2023-03-03T23:06:24.018Z,95.57
2023-03-03T23:08:52.855Z,95.24
2023-03-03T23:11:24.818Z,95.43
2023-03-03T23:13:52.184Z,95.74
2023-03-03T23:16:19.943Z,96.70
2023-03-03T23:18:47.303Z,97.11
2023-03-03T23:21:14.707Z,97.68
2023-03-03T23:23:42.058Z,97.48
2023-03-03T23:26:11.828Z,97.44
2023-03-03T23:28:39.753Z,98.14
2023-03-03T23:31:07.940Z,98.41
2023-03-03T23:33:37.678Z,96.95
2023-03-03T23:36:05.417Z,97.08
2023-03-03T23:38:35.204Z,96.88
2023-03-03T23:41:02.926Z,97.07
2023-03-03T23:43:31.934Z,97.47
2023-03-03T23:46:02.435Z,96.14
2023-03-03T23:48:29.939Z,95.74
2023-03-03T23:50:57.533Z,95.05
2023-03-03T23:53:24.868Z,95.33
2023-03-03T23:55:52.956Z,94.44
2023-03-03T23:58:20.326Z,94.55
